PWSweather.com
Personal Weather Stations
Station Observations
KAZPHOEN90
RayThunderhill, Phoenix, AZ

RayThunderhillPhoenix, AZ

Lat: 33.312, Lon: -112.029

Elevation: 1260

Station Type: Davis Vantage VUE

High Low Average
Temperature 82.9°F28.3°F 59.1°F15.1°F 70.9°F21.6°F
Dew Point 51.2°F10.7°F 40.5°F4.7°F 45.4°F7.4°F
Winds 7.6 mph NW12.2 mph NW Calm Calm 0.8 mph 1.3 mph
Wind Gusts 17.0 mph27.4 mph -- 1.8 mph2.9 mph
Humidity 57% 28% 41%
Pressure 29.86 in1011.20 in 29.69 in1005.40 in -
Precipitation 0.00 in0.00 in - -
Hour Temp Dew Point Humidity Winds Wind Gusts Pressure Precip Precip Rate Daily Precip Total
12:00 AM 74.3°F23.5°C 40.9°F4.9°C 30% Calm Calm -- 29.82 in1009.8 mb - 0.00 in0.0 mm 0.00 in0.0 mm
12:15 AM 73.9°F23.3°C 40.5°F4.7°C 30% Calm Calm 1.0 mph1.6 kmh 29.82 in1009.8 mb - 0.00 in0.0 mm 0.00 in0.0 mm
12:30 AM 72.0°F22.2°C 41.3°F5.2°C 33% Calm Calm -- 29.82 in1009.8 mb - 0.00 in0.0 mm 0.00 in0.0 mm
12:45 AM 69.8°F21.0°C 42.3°F5.7°C 37% Calm Calm -- 29.82 in1009.8 mb - 0.00 in0.0 mm 0.00 in0.0 mm
01:00 AM 68.4°F20.2°C 42.5°F5.8°C 39% Calm Calm -- 29.82 in1009.8 mb - 0.00 in0.0 mm 0.00 in0.0 mm
01:15 AM 67.4°F19.7°C 42.2°F5.7°C 40% Calm Calm -- 29.82 in1009.8 mb - 0.00 in0.0 mm 0.00 in0.0 mm
01:30 AM 66.5°F19.2°C 42.7°F5.9°C 42% Calm Calm -- 29.83 in1010.2 mb - 0.00 in0.0 mm 0.00 in0.0 mm
01:45 AM 65.7°F18.7°C 42.0°F5.6°C 42% Calm Calm -- 29.83 in1010.2 mb - 0.00 in0.0 mm 0.00 in0.0 mm
02:00 AM 64.7°F18.2°C 42.3°F5.7°C 44% Calm Calm -- 29.83 in1010.2 mb - 0.00 in0.0 mm 0.00 in0.0 mm
02:15 AM 64.6°F18.1°C 42.2°F5.7°C 44% Calm Calm -- 29.82 in1009.8 mb - 0.00 in0.0 mm 0.00 in0.0 mm
02:30 AM 63.7°F17.6°C 42.5°F5.8°C 46% Calm Calm -- 29.82 in1009.8 mb - 0.00 in0.0 mm 0.00 in0.0 mm
02:45 AM 62.5°F16.9°C 42.0°F5.6°C 47% Calm Calm -- 29.82 in1009.8 mb - 0.00 in0.0 mm 0.00 in0.0 mm
03:00 AM 62.4°F16.9°C 41.9°F5.5°C 47% Calm Calm -- 29.81 in1009.5 mb - 0.00 in0.0 mm 0.00 in0.0 mm
03:15 AM 61.7°F16.5°C 41.8°F5.4°C 48% Calm Calm -- 29.81 in1009.5 mb - 0.00 in0.0 mm 0.00 in0.0 mm
03:30 AM 61.6°F16.4°C 42.3°F5.7°C 49% Calm Calm -- 29.81 in1009.5 mb - 0.00 in0.0 mm 0.00 in0.0 mm
03:45 AM 60.9°F16.1°C 42.1°F5.6°C 50% Calm Calm -- 29.80 in1009.1 mb - 0.00 in0.0 mm 0.00 in0.0 mm
04:00 AM 60.4°F15.8°C 42.2°F5.7°C 51% Calm Calm -- 29.80 in1009.1 mb - 0.00 in0.0 mm 0.00 in0.0 mm
04:15 AM 60.5°F15.8°C 41.8°F5.4°C 50% Calm Calm -- 29.80 in1009.1 mb - 0.00 in0.0 mm 0.00 in0.0 mm
04:30 AM 61.3°F16.3°C 40.9°F4.9°C 47% Calm Calm -- 29.81 in1009.5 mb - 0.00 in0.0 mm 0.00 in0.0 mm
04:45 AM 61.6°F16.4°C 40.6°F4.8°C 46% Calm Calm -- 29.81 in1009.5 mb - 0.00 in0.0 mm 0.00 in0.0 mm
05:00 AM 61.8°F16.6°C 40.7°F4.8°C 46% Calm Calm -- 29.81 in1009.5 mb - 0.00 in0.0 mm 0.00 in0.0 mm
05:15 AM 61.9°F16.6°C 40.9°F4.9°C 46% Calm Calm -- 29.82 in1009.8 mb - 0.00 in0.0 mm 0.00 in0.0 mm
05:30 AM 61.0°F16.1°C 41.2°F5.1°C 48% Calm Calm -- 29.82 in1009.8 mb - 0.00 in0.0 mm 0.00 in0.0 mm
05:45 AM 60.1°F15.6°C 41.9°F5.5°C 51% Calm Calm -- 29.83 in1010.2 mb - 0.00 in0.0 mm 0.00 in0.0 mm
06:00 AM 59.7°F15.4°C 42.0°F5.6°C 52% Calm Calm -- 29.83 in1010.2 mb - 0.00 in0.0 mm 0.00 in0.0 mm
06:15 AM 60.3°F15.7°C 42.6°F5.9°C 52% Calm Calm -- 29.83 in1010.2 mb - 0.00 in0.0 mm 0.00 in0.0 mm
06:30 AM 59.9°F15.5°C 42.7°F5.9°C 53% Calm Calm -- 29.84 in1010.5 mb - 0.00 in0.0 mm 0.00 in0.0 mm
06:45 AM 59.1°F15.1°C 42.4°F5.8°C 54% Calm Calm -- 29.84 in1010.5 mb - 0.00 in0.0 mm 0.00 in0.0 mm
07:00 AM 59.7°F15.4°C 43.5°F6.4°C 55% Calm Calm -- 29.84 in1010.5 mb - 0.00 in0.0 mm 0.00 in0.0 mm
07:15 AM 60.7°F15.9°C 43.9°F6.6°C 54% Calm Calm -- 29.84 in1010.5 mb - 0.00 in0.0 mm 0.00 in0.0 mm
07:30 AM 62.4°F16.9°C 43.5°F6.4°C 50% Calm Calm -- 29.84 in1010.5 mb - 0.00 in0.0 mm 0.00 in0.0 mm
07:45 AM 63.8°F17.7°C 43.7°F6.5°C 48% Calm Calm -- 29.85 in1010.8 mb - 0.00 in0.0 mm 0.00 in0.0 mm
08:00 AM 65.0°F18.3°C 43.2°F6.2°C 45% Calm Calm -- 29.85 in1010.8 mb - 0.00 in0.0 mm 0.00 in0.0 mm
08:15 AM 66.3°F19.1°C 43.7°F6.5°C 44% Calm Calm -- 29.86 in1011.2 mb - 0.00 in0.0 mm 0.00 in0.0 mm
08:30 AM 68.5°F20.3°C 43.8°F6.6°C 41% Calm Calm 1.0 mph1.6 kmh 29.86 in1011.2 mb - 0.00 in0.0 mm 0.00 in0.0 mm
08:45 AM 70.1°F21.2°C 45.3°F7.4°C 41% Calm Calm 1.0 mph1.6 kmh 29.86 in1011.2 mb - 0.00 in0.0 mm 0.00 in0.0 mm
09:00 AM 70.9°F21.6°C 44.7°F7.1°C 39% Calm Calm -- 29.86 in1011.2 mb - 0.00 in0.0 mm 0.00 in0.0 mm
09:15 AM 71.4°F21.9°C 45.9°F7.7°C 40% Calm Calm -- 29.86 in1011.2 mb - 0.00 in0.0 mm 0.00 in0.0 mm
09:30 AM 72.9°F22.7°C 44.4°F6.9°C 36% 0.1 mph SE0.2 kmh SE 1.0 mph1.6 kmh 29.86 in1011.2 mb - 0.00 in0.0 mm 0.00 in0.0 mm
09:45 AM 74.6°F23.7°C 44.4°F6.9°C 34% 0.1 mph ESE0.2 kmh ESE 1.0 mph1.6 kmh 29.86 in1011.2 mb - 0.00 in0.0 mm 0.00 in0.0 mm
10:00 AM 75.5°F24.2°C 43.6°F6.4°C 32% 0.5 mph ESE0.8 kmh ESE 1.0 mph1.6 kmh 29.86 in1011.2 mb - 0.00 in0.0 mm 0.00 in0.0 mm
10:15 AM 77.0°F25.0°C 44.1°F6.7°C 31% 0.3 mph ESE0.5 kmh ESE 1.0 mph1.6 kmh 29.85 in1010.8 mb - 0.00 in0.0 mm 0.00 in0.0 mm
10:30 AM 76.5°F24.7°C 43.6°F6.4°C 31% 0.5 mph N0.8 kmh N 1.0 mph1.6 kmh 29.86 in1011.2 mb - 0.00 in0.0 mm 0.00 in0.0 mm
10:45 AM 78.3°F25.7°C 45.2°F7.3°C 31% 0.3 mph SE0.5 kmh SE 2.0 mph3.2 kmh 29.85 in1010.8 mb - 0.00 in0.0 mm 0.00 in0.0 mm
11:00 AM 79.3°F26.3°C 45.2°F7.3°C 30% 0.2 mph S0.3 kmh S 2.0 mph3.2 kmh 29.84 in1010.5 mb - 0.00 in0.0 mm 0.00 in0.0 mm
11:15 AM 80.0°F26.7°C 44.9°F7.2°C 29% 0.5 mph SE0.8 kmh SE 1.0 mph1.6 kmh 29.84 in1010.5 mb - 0.00 in0.0 mm 0.00 in0.0 mm
11:30 AM 80.1°F26.7°C 45.0°F7.2°C 29% Calm Calm -- 29.84 in1010.5 mb - 0.00 in0.0 mm 0.00 in0.0 mm
11:45 AM 81.4°F27.4°C 46.1°F7.8°C 29% Calm Calm -- 29.84 in1010.5 mb - 0.00 in0.0 mm 0.00 in0.0 mm
12:00 PM 80.8°F27.1°C 45.6°F7.6°C 29% Calm Calm 1.0 mph1.6 kmh 29.83 in1010.2 mb - 0.00 in0.0 mm 0.00 in0.0 mm
12:15 PM 81.7°F27.6°C 46.3°F7.9°C 29% 1.0 mph WSW1.6 kmh WSW 2.0 mph3.2 kmh 29.83 in1010.2 mb - 0.00 in0.0 mm 0.00 in0.0 mm
12:30 PM 81.9°F27.7°C 45.6°F7.6°C 28% 1.6 mph W2.6 kmh W 3.0 mph4.8 kmh 29.81 in1009.5 mb - 0.00 in0.0 mm 0.00 in0.0 mm
12:45 PM 81.4°F27.4°C 47.0°F8.3°C 30% 1.4 mph SE2.3 kmh SE 3.0 mph4.8 kmh 29.80 in1009.1 mb - 0.00 in0.0 mm 0.00 in0.0 mm
01:00 PM 82.4°F28.0°C 46.9°F8.3°C 29% 0.5 mph W0.8 kmh W 2.0 mph3.2 kmh 29.79 in1008.8 mb - 0.00 in0.0 mm 0.00 in0.0 mm
01:15 PM 81.7°F27.6°C 46.4°F8.0°C 29% 1.4 mph SSW2.3 kmh SSW 3.0 mph4.8 kmh 29.79 in1008.8 mb - 0.00 in0.0 mm 0.00 in0.0 mm
01:30 PM 81.2°F27.3°C 46.0°F7.8°C 29% 2.3 mph WSW3.7 kmh WSW 4.0 mph6.4 kmh 29.78 in1008.5 mb - 0.00 in0.0 mm 0.00 in0.0 mm
01:45 PM 81.5°F27.5°C 47.9°F8.8°C 31% 1.3 mph SW2.1 kmh SW 4.0 mph6.4 kmh 29.78 in1008.5 mb - 0.00 in0.0 mm 0.00 in0.0 mm
02:00 PM 81.7°F27.6°C 48.1°F8.9°C 31% Calm Calm -- 29.77 in1008.1 mb - 0.00 in0.0 mm 0.00 in0.0 mm
02:15 PM 82.4°F28.0°C 48.7°F9.3°C 31% 0.3 mph SW0.5 kmh SW 1.0 mph1.6 kmh 29.76 in1007.8 mb - 0.00 in0.0 mm 0.00 in0.0 mm
02:30 PM 82.9°F28.3°C 49.2°F9.6°C 31% 1.0 mph SW1.6 kmh SW 3.0 mph4.8 kmh 29.75 in1007.5 mb - 0.00 in0.0 mm 0.00 in0.0 mm
02:45 PM 82.3°F27.9°C 47.8°F8.8°C 30% 1.2 mph SSW1.9 kmh SSW 5.0 mph8.0 kmh 29.75 in1007.5 mb - 0.00 in0.0 mm 0.00 in0.0 mm
03:00 PM 81.4°F27.4°C 48.7°F9.3°C 32% Calm Calm 1.0 mph1.6 kmh 29.74 in1007.1 mb - 0.00 in0.0 mm 0.00 in0.0 mm
03:15 PM 81.1°F27.3°C 49.3°F9.6°C 33% Calm Calm -- 29.74 in1007.1 mb - 0.00 in0.0 mm 0.00 in0.0 mm
03:30 PM 80.2°F26.8°C 50.1°F10.1°C 35% 1.1 mph NW1.8 kmh NW 4.0 mph6.4 kmh 29.73 in1006.8 mb - 0.00 in0.0 mm 0.00 in0.0 mm
03:45 PM 81.5°F27.5°C 51.2°F10.7°C 35% 1.0 mph NW1.6 kmh NW 2.0 mph3.2 kmh 29.72 in1006.4 mb - 0.00 in0.0 mm 0.00 in0.0 mm
04:00 PM 80.4°F26.9°C 50.2°F10.1°C 35% 0.6 mph NW1.0 kmh NW -- 29.72 in1006.4 mb - 0.00 in0.0 mm 0.00 in0.0 mm
04:15 PM 80.8°F27.1°C 49.8°F9.9°C 34% 2.5 mph WNW4.0 kmh WNW 4.0 mph6.4 kmh 29.72 in1006.4 mb - 0.00 in0.0 mm 0.00 in0.0 mm
04:30 PM 81.4°F27.4°C 49.5°F9.7°C 33% 1.7 mph WSW2.7 kmh WSW 2.0 mph3.2 kmh 29.71 in1006.1 mb - 0.00 in0.0 mm 0.00 in0.0 mm
04:45 PM 79.9°F26.6°C 49.0°F9.4°C 34% 0.1 mph S0.2 kmh S -- 29.71 in1006.1 mb - 0.00 in0.0 mm 0.00 in0.0 mm
05:00 PM 80.5°F26.9°C 48.7°F9.3°C 33% 0.7 mph W1.1 kmh W 2.0 mph3.2 kmh 29.71 in1006.1 mb - 0.00 in0.0 mm 0.00 in0.0 mm
05:15 PM 79.6°F26.4°C 48.8°F9.3°C 34% 0.8 mph WSW1.3 kmh WSW 2.0 mph3.2 kmh 29.70 in1005.8 mb - 0.00 in0.0 mm 0.00 in0.0 mm
05:30 PM 80.9°F27.2°C 49.1°F9.5°C 33% 1.4 mph WSW2.3 kmh WSW 4.0 mph6.4 kmh 29.69 in1005.4 mb - 0.00 in0.0 mm 0.00 in0.0 mm
05:45 PM 80.9°F27.2°C 49.1°F9.5°C 33% 0.8 mph SSE1.3 kmh SSE 2.0 mph3.2 kmh 29.69 in1005.4 mb - 0.00 in0.0 mm 0.00 in0.0 mm
06:00 PM 79.8°F26.6°C 48.9°F9.4°C 34% 1.6 mph SSW2.6 kmh SSW 3.0 mph4.8 kmh 29.69 in1005.4 mb - 0.00 in0.0 mm 0.00 in0.0 mm
06:15 PM 78.1°F25.6°C 49.0°F9.4°C 36% 0.8 mph WSW1.3 kmh WSW 1.0 mph1.6 kmh 29.70 in1005.8 mb - 0.00 in0.0 mm 0.00 in0.0 mm
06:30 PM 77.2°F25.1°C 48.9°F9.4°C 37% 3.2 mph W5.1 kmh W 5.0 mph8.0 kmh 29.70 in1005.8 mb - 0.00 in0.0 mm 0.00 in0.0 mm
06:45 PM 76.7°F24.8°C 48.5°F9.2°C 37% 0.4 mph W0.6 kmh W 1.0 mph1.6 kmh 29.70 in1005.8 mb - 0.00 in0.0 mm 0.00 in0.0 mm
07:00 PM 76.1°F24.5°C 47.9°F8.8°C 37% 1.0 mph WNW1.6 kmh WNW 5.0 mph8.0 kmh 29.70 in1005.8 mb - 0.00 in0.0 mm 0.00 in0.0 mm
07:15 PM 75.7°F24.3°C 48.3°F9.1°C 38% Calm Calm 2.0 mph3.2 kmh 29.70 in1005.8 mb - 0.00 in0.0 mm 0.00 in0.0 mm
07:30 PM 75.4°F24.1°C 48.7°F9.3°C 39% Calm Calm -- 29.70 in1005.8 mb - 0.00 in0.0 mm 0.00 in0.0 mm
07:45 PM 75.2°F24.0°C 49.2°F9.6°C 40% 0.6 mph WSW1.0 kmh WSW -- 29.70 in1005.8 mb - 0.00 in0.0 mm 0.00 in0.0 mm
08:00 PM 75.1°F23.9°C 49.1°F9.5°C 40% 1.8 mph SW2.9 kmh SW 5.0 mph8.0 kmh 29.70 in1005.8 mb - 0.00 in0.0 mm 0.00 in0.0 mm
08:15 PM 68.9°F20.5°C 49.5°F9.7°C 50% 5.6 mph WNW9.0 kmh WNW 8.0 mph12.9 kmh 29.72 in1006.4 mb - 0.00 in0.0 mm 0.00 in0.0 mm
08:30 PM 66.4°F19.1°C 48.8°F9.3°C 53% 2.8 mph WNW4.5 kmh WNW 6.0 mph9.7 kmh 29.73 in1006.8 mb - 0.00 in0.0 mm 0.00 in0.0 mm
08:45 PM 65.4°F18.6°C 48.8°F9.3°C 55% 6.3 mph W10.1 kmh W 9.0 mph14.5 kmh 29.74 in1007.1 mb - 0.00 in0.0 mm 0.00 in0.0 mm
09:00 PM 64.3°F17.9°C 48.3°F9.1°C 56% 6.2 mph NW10.0 kmh NW 8.0 mph12.9 kmh 29.73 in1006.8 mb - 0.00 in0.0 mm 0.00 in0.0 mm
09:15 PM 63.7°F17.6°C 47.7°F8.7°C 56% 7.6 mph NW12.2 kmh NW 17.0 mph27.4 kmh 29.74 in1007.1 mb - 0.00 in0.0 mm 0.00 in0.0 mm
09:30 PM 63.4°F17.4°C 46.9°F8.3°C 55% 3.9 mph NW6.3 kmh NW 9.0 mph14.5 kmh 29.75 in1007.5 mb - 0.00 in0.0 mm 0.00 in0.0 mm
09:45 PM 63.4°F17.4°C 47.4°F8.6°C 56% 3.6 mph W5.8 kmh W 12.0 mph19.3 kmh 29.75 in1007.5 mb - 0.00 in0.0 mm 0.00 in0.0 mm
10:00 PM 62.7°F17.1°C 46.8°F8.2°C 56% 1.3 mph NW2.1 kmh NW 5.0 mph8.0 kmh 29.75 in1007.5 mb - 0.00 in0.0 mm 0.00 in0.0 mm
10:15 PM 62.1°F16.7°C 46.2°F7.9°C 56% 2.8 mph NW4.5 kmh NW 3.0 mph4.8 kmh 29.76 in1007.8 mb - 0.00 in0.0 mm 0.00 in0.0 mm
10:30 PM 61.7°F16.5°C 46.3°F7.9°C 57% 0.2 mph ESE0.3 kmh ESE 2.0 mph3.2 kmh 29.77 in1008.1 mb - 0.00 in0.0 mm 0.00 in0.0 mm
10:45 PM 61.4°F16.3°C 46.0°F7.8°C 57% 1.0 mph NW1.6 kmh NW 1.0 mph1.6 kmh 29.77 in1008.1 mb - 0.00 in0.0 mm 0.00 in0.0 mm
11:00 PM 61.1°F16.2°C 45.3°F7.4°C 56% Calm Calm -- 29.77 in1008.1 mb - 0.00 in0.0 mm 0.00 in0.0 mm
11:15 PM 60.8°F16.0°C 45.4°F7.4°C 57% Calm Calm -- 29.77 in1008.1 mb - 0.00 in0.0 mm 0.00 in0.0 mm
11:30 PM 60.4°F15.8°C 44.7°F7.1°C 56% Calm Calm -- 29.77 in1008.1 mb - 0.00 in0.0 mm 0.00 in0.0 mm
11:45 PM 60.4°F15.8°C 44.6°F7.0°C 56% Calm Calm -- 29.78 in1008.5 mb - 0.00 in0.0 mm 0.00 in0.0 mm